createdAt,value
2019-02-18T00:00:59.762Z,191.90
2019-02-18T00:03:30.538Z,187.70
2019-02-18T00:06:00.576Z,183.67
2019-02-18T00:08:30.567Z,184.67
2019-02-18T00:11:00.590Z,185.63
2019-02-18T00:13:30.603Z,182.73
2019-02-18T00:16:00.610Z,179.90
2019-02-18T00:18:30.587Z,178.30
2019-02-18T00:21:00.573Z,179.63
2019-02-18T00:23:30.622Z,184.03
2019-02-18T00:26:00.586Z,180.00
2019-02-18T00:28:30.592Z,176.37
2019-02-18T00:31:00.554Z,172.83
2019-02-18T00:33:30.539Z,173.47
2019-02-18T00:36:00.508Z,176.83
2019-02-18T00:38:30.566Z,179.90
2019-02-18T00:41:00.486Z,173.10
2019-02-18T00:43:30.454Z,171.17
2019-02-18T00:46:00.554Z,166.57
2019-02-18T00:48:30.534Z,168.57
2019-02-18T00:51:00.509Z,170.27
2019-02-18T00:53:30.399Z,165.53
2019-02-18T00:56:00.378Z,164.87
2019-02-18T00:58:30.447Z,163.77
2019-02-18T01:01:00.355Z,162.23
2019-02-18T01:03:30.335Z,161.60
2019-02-18T01:06:00.302Z,161.27
2019-02-18T01:08:30.316Z,159.53
2019-02-18T01:11:00.283Z,160.53
2019-02-18T01:13:30.260Z,161.60
2019-02-18T01:16:00.364Z,162.97
2019-02-18T01:18:30.873Z,155.73
2019-02-18T01:21:01.196Z,166.43
2019-02-18T01:23:31.468Z,153.10
2019-02-18T01:26:01.750Z,153.53
2019-02-18T01:28:32.011Z,149.40
2019-02-18T01:31:02.439Z,151.73
2019-02-18T01:33:32.785Z,148.57
2019-02-18T01:36:03.242Z,151.07
2019-02-18T01:38:33.588Z,145.03
2019-02-18T01:41:03.607Z,145.63
2019-02-18T01:43:34.582Z,144.10
2019-02-18T01:46:04.607Z,143.57
2019-02-18T01:48:34.583Z,144.57
2019-02-18T01:51:04.562Z,140.50
2019-02-18T01:53:34.454Z,141.67
2019-02-18T01:56:04.466Z,143.97
2019-02-18T01:58:34.439Z,144.33
2019-02-18T02:01:04.326Z,140.07
2019-02-18T02:03:34.368Z,137.13
2019-02-18T02:06:04.257Z,136.53
2019-02-18T02:08:34.246Z,131.97
2019-02-18T02:11:04.203Z,135.50
2019-02-18T02:13:35.797Z,137.57
2019-02-18T02:16:10.806Z,139.73
2019-02-18T02:18:40.826Z,133.07
2019-02-18T02:21:10.812Z,134.43
2019-02-18T02:23:40.829Z,135.73
2019-02-18T02:26:10.787Z,131.80
2019-02-18T02:28:40.780Z,130.13
2019-02-18T02:31:10.835Z,132.17
2019-02-18T02:33:40.795Z,129.43
2019-02-18T02:36:10.711Z,128.77
2019-02-18T02:38:40.687Z,131.10
2019-02-18T02:41:10.999Z,131.67
2019-02-18T02:43:41.140Z,129.57
2019-02-18T02:46:12.153Z,123.80
2019-02-18T02:48:42.275Z,120.53
2019-02-18T02:51:12.580Z,121.87
2019-02-18T02:53:42.810Z,119.70
2019-02-18T02:56:13.324Z,119.30
2019-02-18T02:58:43.948Z,121.83
2019-02-18T03:01:15.255Z,119.73
2019-02-18T03:03:45.947Z,119.83
2019-02-18T03:06:16.076Z,117.67
2019-02-18T03:08:46.154Z,116.07
2019-02-18T03:11:16.216Z,114.33
2019-02-18T03:13:46.275Z,115.97
2019-02-18T03:16:16.261Z,115.10
2019-02-18T03:18:46.238Z,113.67
2019-02-18T03:21:16.211Z,111.83
2019-02-18T03:23:46.205Z,110.50
2019-02-18T03:26:16.187Z,109.87
2019-02-18T03:29:40.358Z,111.20
2019-02-18T03:32:10.668Z,108.03
2019-02-18T03:34:43.418Z,110.20
2019-02-18T03:37:14.463Z,111.23
2019-02-18T03:39:44.522Z,113.00
2019-02-18T03:42:14.542Z,108.37
2019-02-18T03:44:44.510Z,106.67
2019-02-18T03:47:15.549Z,108.20
2019-02-18T03:49:45.582Z,104.90
2019-02-18T03:52:15.502Z,101.80
2019-02-18T03:54:45.466Z,107.30
2019-02-18T03:57:15.438Z,103.70
2019-02-18T03:59:45.339Z,103.20
2019-02-18T04:02:16.200Z,100.80
2019-02-18T04:04:46.242Z,99.67
2019-02-18T04:07:16.278Z,104.43
2019-02-18T04:09:46.226Z,95.27
2019-02-18T04:12:16.106Z,95.70
2019-02-18T04:14:46.051Z,100.60
2019-02-18T04:17:16.002Z,95.43
2019-02-18T04:19:45.951Z,94.93
2019-02-18T04:22:15.842Z,94.43
2019-02-18T04:24:45.717Z,93.10
2019-02-18T04:27:15.667Z,93.27
2019-02-18T04:29:45.615Z,92.73
2019-02-18T04:32:15.567Z,95.43
2019-02-18T04:34:45.446Z,91.83
2019-02-18T04:37:15.402Z,88.83
2019-02-18T04:39:45.391Z,94.67
2019-02-18T04:42:15.287Z,90.83
2019-02-18T04:44:45.351Z,95.10
2019-02-18T04:47:15.470Z,86.30
2019-02-18T04:49:45.666Z,90.87
2019-02-18T04:52:15.770Z,91.23
2019-02-18T04:54:45.828Z,88.20
2019-02-18T04:57:16.085Z,88.27
2019-02-18T04:59:46.223Z,87.37
2019-02-18T05:02:16.235Z,82.97
2019-02-18T05:04:46.204Z,86.63
2019-02-18T05:07:16.192Z,85.10
2019-02-18T05:09:46.158Z,87.53
2019-02-18T05:12:16.359Z,88.90
2019-02-18T05:14:46.358Z,86.40
2019-02-18T05:17:16.234Z,91.17
2019-02-18T05:19:46.238Z,88.37
2019-02-18T05:22:16.502Z,90.83
2019-02-18T05:24:47.528Z,90.03
2019-02-18T05:27:17.546Z,93.07
2019-02-18T05:29:47.417Z,91.40
2019-02-18T05:32:17.456Z,91.10
2019-02-18T05:34:47.490Z,96.37
2019-02-18T05:37:17.363Z,95.47
2019-02-18T05:39:47.319Z,101.60
2019-02-18T05:42:17.315Z,110.43
2019-02-18T05:44:47.386Z,122.27
2019-02-18T05:47:17.655Z,142.60
2019-02-18T05:49:47.940Z,146.93
2019-02-18T05:52:18.132Z,159.17
2019-02-18T05:54:48.310Z,158.37
2019-02-18T05:57:18.478Z,158.17
2019-02-18T05:59:48.558Z,164.07
2019-02-18T06:02:20.199Z,181.03
2019-02-18T06:04:50.528Z,186.53
2019-02-18T06:07:20.767Z,199.87
2019-02-18T06:09:50.900Z,198.93
2019-02-18T06:12:20.974Z,203.40
2019-02-18T06:14:51.065Z,202.77
2019-02-18T06:17:21.192Z,225.07
2019-02-18T06:19:51.322Z,227.53
2019-02-18T06:22:21.354Z,222.03
2019-02-18T06:24:51.360Z,228.30
2019-02-18T06:27:21.479Z,219.80
2019-02-18T06:29:51.575Z,226.73
2019-02-18T06:32:21.967Z,237.83
2019-02-18T06:34:52.101Z,221.00
2019-02-18T06:37:22.200Z,225.27
2019-02-18T06:39:52.317Z,216.67
2019-02-18T06:42:22.499Z,220.53
2019-02-18T06:45:12.009Z,214.37
2019-02-18T06:47:42.393Z,219.57
2019-02-18T06:50:12.471Z,225.90
2019-02-18T06:52:42.547Z,219.80
2019-02-18T06:55:12.684Z,221.90
2019-02-18T06:58:00.388Z,223.83
2019-02-18T07:00:39.272Z,215.33
2019-02-18T07:03:46.624Z,217.47
2019-02-18T07:06:42.015Z,220.60
2019-02-18T07:09:21.301Z,216.73
2019-02-18T07:12:13.367Z,228.63
2019-02-18T07:14:43.432Z,215.20
2019-02-18T07:17:13.420Z,218.03
2019-02-18T07:19:43.423Z,214.40
2019-02-18T07:22:13.512Z,205.50
2019-02-18T07:24:43.589Z,216.07
2019-02-18T07:27:13.647Z,206.30
2019-02-18T07:29:43.693Z,201.30
2019-02-18T07:32:13.793Z,211.67
2019-02-18T07:34:43.871Z,204.43
2019-02-18T07:37:13.976Z,205.07
2019-02-18T07:39:44.098Z,206.97
2019-02-18T07:42:14.097Z,199.33
2019-02-18T07:44:44.190Z,197.80
2019-02-18T07:47:14.331Z,191.73
2019-02-18T07:49:44.344Z,199.13
2019-02-18T07:52:14.412Z,197.37
2019-02-18T07:54:44.421Z,193.53
2019-02-18T07:57:14.535Z,197.60
2019-02-18T07:59:44.611Z,193.17
2019-02-18T08:02:14.688Z,192.93
2019-02-18T08:04:44.763Z,189.27
2019-02-18T08:07:14.854Z,191.23
2019-02-18T08:09:44.922Z,186.23
2019-02-18T08:12:15.054Z,190.90
2019-02-18T08:14:45.086Z,182.13
2019-02-18T08:17:15.192Z,180.97
2019-02-18T08:19:45.192Z,183.20
2019-02-18T08:22:15.285Z,183.83
2019-02-18T08:24:45.311Z,181.10
2019-02-18T08:27:15.317Z,183.93
2019-02-18T08:29:45.348Z,180.27
2019-02-18T08:32:15.462Z,179.70
2019-02-18T08:34:45.534Z,178.23
2019-02-18T08:37:15.592Z,175.60
2019-02-18T08:39:45.656Z,174.17
2019-02-18T08:42:15.695Z,174.37
2019-02-18T08:44:45.706Z,174.77
2019-02-18T08:47:15.835Z,170.00
2019-02-18T08:49:45.872Z,174.17
2019-02-18T08:52:15.964Z,169.93
2019-02-18T08:54:56.051Z,168.83
2019-02-18T08:57:17.659Z,171.37
2019-02-18T08:59:48.047Z,169.10
2019-02-18T09:02:18.418Z,166.33
2019-02-18T09:04:49.473Z,167.37
2019-02-18T09:07:20.703Z,173.37
2019-02-18T09:09:51.337Z,166.00
2019-02-18T09:12:21.510Z,163.23
2019-02-18T09:14:51.515Z,163.93
2019-02-18T09:17:21.499Z,166.93
2019-02-18T09:19:51.483Z,159.77
2019-02-18T09:22:46.450Z,161.67
2019-02-18T09:25:26.132Z,161.13
2019-02-18T09:27:56.107Z,475.50
2019-02-18T09:30:28.751Z,591.27
2019-02-18T09:32:58.933Z,586.00
2019-02-18T09:35:29.348Z,514.50
2019-02-18T09:37:59.561Z,511.57
2019-02-18T09:40:29.769Z,553.80
2019-02-18T09:42:59.851Z,638.80
2019-02-18T09:45:30.836Z,534.97
2019-02-18T09:48:00.866Z,490.30
2019-02-18T09:50:30.868Z,462.27
2019-02-18T09:53:02.522Z,459.67
2019-02-18T09:55:32.764Z,418.67
2019-02-18T09:58:03.293Z,417.13
2019-02-18T10:00:33.375Z,459.60
2019-02-18T10:03:03.436Z,429.23
2019-02-18T10:05:33.575Z,409.57
2019-02-18T10:08:03.603Z,386.33
2019-02-18T10:10:33.584Z,382.23
2019-02-18T10:13:03.566Z,365.43
2019-02-18T10:15:33.544Z,352.53
2019-02-18T10:18:03.830Z,348.23
2019-02-18T10:20:36.269Z,333.93
2019-02-18T10:23:06.408Z,328.87
2019-02-18T10:25:36.438Z,310.53
2019-02-18T10:28:07.610Z,299.60
2019-02-18T10:30:37.862Z,295.37
2019-02-18T10:33:08.191Z,289.23
2019-02-18T10:35:38.454Z,286.83
2019-02-18T10:38:08.887Z,278.43
2019-02-18T10:40:39.201Z,272.27
2019-02-18T10:43:09.424Z,259.70
2019-02-18T10:45:39.607Z,261.23
2019-02-18T10:48:09.759Z,251.83
2019-02-18T10:50:40.132Z,243.37
2019-02-18T10:53:10.264Z,246.53
2019-02-18T10:55:40.401Z,236.67
2019-02-18T10:58:10.539Z,317.37
2019-02-18T11:00:40.744Z,557.50
2019-02-18T11:03:11.526Z,571.77
2019-02-18T11:05:42.669Z,518.00
2019-02-18T11:08:13.039Z,462.30
2019-02-18T11:10:43.144Z,434.53
2019-02-18T11:13:13.429Z,436.37
2019-02-18T11:15:43.752Z,624.07
2019-02-18T11:18:13.847Z,741.83
2019-02-18T11:20:44.147Z,587.43
2019-02-18T11:23:14.435Z,559.70
2019-02-18T11:25:46.108Z,545.20
2019-02-18T11:28:16.373Z,521.80
2019-02-18T11:30:46.747Z,511.67
2019-02-18T11:33:17.003Z,498.07
2019-02-18T11:35:47.261Z,489.13
2019-02-18T11:38:17.886Z,457.67
2019-02-18T11:40:48.124Z,465.47
2019-02-18T11:43:18.471Z,597.07
2019-02-18T11:45:48.600Z,539.53
2019-02-18T11:48:18.891Z,506.47
2019-02-18T11:50:49.166Z,520.87
2019-02-18T11:53:19.444Z,500.70
2019-02-18T11:55:49.491Z,502.10
2019-02-18T11:58:19.859Z,502.57
2019-02-18T12:00:50.043Z,663.87
2019-02-18T12:03:20.132Z,653.17
2019-02-18T12:05:50.468Z,560.30
2019-02-18T12:08:20.616Z,531.63
2019-02-18T12:10:50.800Z,534.23
2019-02-18T12:13:20.968Z,626.33
2019-02-18T12:15:51.027Z,600.27
2019-02-18T12:18:21.098Z,608.20
2019-02-18T12:20:51.263Z,585.67
2019-02-18T12:23:21.304Z,581.50
2019-02-18T12:25:51.423Z,531.27
2019-02-18T12:28:21.486Z,509.03
2019-02-18T12:30:51.479Z,513.83
2019-02-18T12:33:21.568Z,508.20
2019-02-18T12:35:51.616Z,489.77
2019-02-18T12:38:21.767Z,486.00
2019-02-18T12:40:51.949Z,456.50
2019-02-18T12:43:21.999Z,449.07
2019-02-18T12:45:52.088Z,431.93
2019-02-18T12:48:23.348Z,407.70
2019-02-18T12:50:53.383Z,389.17
2019-02-18T12:53:24.495Z,394.63
2019-02-18T12:55:54.545Z,378.83
2019-02-18T12:58:24.507Z,344.43
2019-02-18T13:00:54.478Z,330.60
2019-02-18T13:03:24.852Z,342.63
2019-02-18T13:05:54.882Z,327.00
2019-02-18T13:08:25.204Z,334.03
2019-02-18T13:10:55.299Z,328.37
2019-02-18T13:13:25.346Z,325.13
2019-02-18T13:15:55.395Z,322.20
2019-02-18T13:18:25.455Z,326.47
2019-02-18T13:20:55.504Z,307.73
2019-02-18T13:23:25.535Z,305.23
2019-02-18T13:25:55.586Z,309.10
2019-02-18T13:28:25.535Z,299.10
2019-02-18T13:30:55.579Z,300.40
2019-02-18T13:33:25.547Z,295.90
2019-02-18T13:35:55.867Z,305.73
2019-02-18T13:38:25.884Z,288.40
2019-02-18T13:40:55.858Z,278.37
2019-02-18T13:43:25.806Z,274.83
2019-02-18T13:45:55.758Z,277.33
2019-02-18T13:48:25.778Z,269.80
2019-02-18T13:50:55.662Z,275.73
2019-02-18T13:53:25.713Z,270.97
2019-02-18T13:55:55.761Z,277.90
2019-02-18T13:58:25.734Z,279.43
2019-02-18T14:00:55.774Z,276.70
2019-02-18T14:03:26.127Z,285.17
2019-02-18T14:05:56.146Z,268.03
2019-02-18T14:08:26.179Z,264.50
2019-02-18T14:10:56.242Z,275.70
2019-02-18T14:13:26.270Z,275.33
2019-02-18T14:15:56.309Z,273.13
2019-02-18T14:18:26.290Z,277.33
2019-02-18T14:20:56.318Z,276.23
2019-02-18T14:23:26.282Z,263.67
2019-02-18T14:25:56.339Z,269.00
2019-02-18T14:28:26.322Z,254.33
2019-02-18T14:30:56.386Z,250.50
2019-02-18T14:33:26.355Z,254.40
2019-02-18T14:35:56.402Z,243.07
2019-02-18T14:38:26.361Z,251.07
2019-02-18T14:40:56.246Z,238.40
2019-02-18T14:43:26.191Z,243.57
2019-02-18T14:45:56.283Z,245.97
2019-02-18T14:48:26.243Z,240.63
2019-02-18T14:50:56.963Z,237.57
2019-02-18T14:53:27.110Z,231.93
2019-02-18T14:55:57.068Z,226.03
2019-02-18T14:58:27.117Z,226.47
2019-02-18T15:00:56.997Z,222.37
2019-02-18T15:03:27.055Z,215.57
2019-02-18T15:05:57.114Z,213.67
2019-02-18T15:08:27.194Z,207.37
2019-02-18T15:10:57.249Z,207.13
2019-02-18T15:13:27.602Z,206.70
2019-02-18T15:15:57.587Z,201.57
2019-02-18T15:18:27.638Z,194.57
2019-02-18T15:20:57.718Z,191.67
2019-02-18T15:23:27.770Z,181.53
2019-02-18T15:25:57.789Z,178.43
2019-02-18T15:28:27.869Z,178.40
2019-02-18T15:30:57.925Z,175.10
2019-02-18T15:33:27.982Z,173.10
2019-02-18T15:35:58.034Z,161.90
2019-02-18T15:38:28.089Z,161.93
2019-02-18T15:40:59.216Z,154.37
2019-02-18T15:43:29.279Z,160.83
2019-02-18T15:45:59.326Z,157.73
2019-02-18T15:48:29.389Z,155.80
2019-02-18T15:50:59.438Z,155.57
2019-02-18T15:53:30.590Z,161.73
2019-02-18T15:56:00.654Z,147.30
2019-02-18T15:58:30.727Z,152.77
2019-02-18T16:01:00.799Z,149.53
2019-02-18T16:03:30.854Z,145.33
2019-02-18T16:06:00.906Z,142.37
2019-02-18T16:08:31.274Z,144.40
2019-02-18T16:11:01.341Z,136.33
2019-02-18T16:13:31.459Z,139.13
2019-02-18T16:16:01.519Z,134.63
2019-02-18T16:18:31.570Z,137.40
2019-02-18T16:21:01.631Z,132.17
2019-02-18T16:23:32.023Z,131.63
2019-02-18T16:26:02.107Z,130.53
2019-02-18T16:28:32.275Z,126.10
2019-02-18T16:31:02.322Z,130.37
2019-02-18T16:33:32.398Z,143.47
2019-02-18T16:36:02.527Z,140.20
2019-02-18T16:38:32.574Z,170.13
2019-02-18T16:41:02.648Z,184.30
2019-02-18T16:43:33.222Z,166.50
2019-02-18T16:46:03.265Z,168.07
2019-02-18T16:48:33.630Z,162.70
2019-02-18T16:51:03.626Z,153.67
2019-02-18T16:53:33.686Z,159.00
2019-02-18T16:56:03.763Z,151.47
2019-02-18T16:58:33.807Z,153.23
2019-02-18T17:01:04.830Z,152.53
2019-02-18T17:03:35.378Z,148.83
2019-02-18T17:06:05.471Z,140.73
2019-02-18T17:08:35.442Z,146.73
2019-02-18T17:11:05.430Z,140.63
2019-02-18T17:13:35.522Z,137.97
2019-02-18T17:16:05.571Z,132.20
2019-02-18T17:18:36.914Z,125.37
2019-02-18T17:21:06.954Z,128.97
2019-02-18T17:23:37.017Z,128.73
2019-02-18T17:26:07.090Z,130.63
2019-02-18T17:28:37.139Z,123.63
2019-02-18T17:31:07.213Z,119.17
2019-02-18T17:33:37.275Z,121.57
2019-02-18T17:36:07.324Z,121.90
2019-02-18T17:38:37.424Z,123.70
2019-02-18T17:41:07.470Z,121.43
2019-02-18T17:43:37.558Z,115.50
2019-02-18T17:46:07.630Z,115.27
2019-02-18T17:48:37.667Z,116.03
2019-02-18T17:51:07.768Z,115.03
2019-02-18T17:53:37.846Z,115.53
2019-02-18T17:56:07.814Z,112.30
2019-02-18T17:58:37.878Z,113.77
2019-02-18T18:01:08.222Z,104.53
2019-02-18T18:03:38.284Z,104.00
2019-02-18T18:06:08.330Z,103.93
2019-02-18T18:08:38.380Z,107.30
2019-02-18T18:11:08.462Z,105.60
2019-02-18T18:13:38.437Z,108.57
2019-02-18T18:16:08.507Z,109.13
2019-02-18T18:18:38.565Z,106.27
2019-02-18T18:21:08.636Z,113.97
2019-02-18T18:23:38.690Z,115.60
2019-02-18T18:26:11.274Z,112.30
2019-02-18T18:28:41.645Z,114.97
2019-02-18T18:31:11.626Z,117.30
2019-02-18T18:33:41.694Z,124.40
2019-02-18T18:36:11.755Z,118.20
2019-02-18T18:38:41.818Z,122.40
2019-02-18T18:41:11.921Z,121.70
2019-02-18T18:43:41.946Z,120.83
2019-02-18T18:46:11.963Z,123.30
2019-02-18T18:48:41.943Z,119.90
2019-02-18T18:51:11.975Z,120.53
2019-02-18T18:53:42.044Z,125.63
2019-02-18T18:56:12.390Z,122.53
2019-02-18T18:58:42.438Z,126.07
2019-02-18T19:01:12.478Z,126.43
2019-02-18T19:03:42.558Z,124.30
2019-02-18T19:06:12.601Z,129.33
2019-02-18T19:08:42.743Z,134.10
2019-02-18T19:11:12.822Z,128.63
2019-02-18T19:13:42.931Z,130.40
2019-02-18T19:16:12.974Z,140.37
2019-02-18T19:18:42.942Z,147.90
2019-02-18T19:21:12.998Z,160.93
2019-02-18T19:23:43.066Z,157.90
2019-02-18T19:26:13.138Z,148.83
2019-02-18T19:28:44.173Z,154.10
2019-02-18T19:31:14.154Z,161.03
2019-02-18T19:33:44.210Z,157.93
2019-02-18T19:36:14.473Z,165.47
2019-02-18T19:38:44.521Z,174.57
2019-02-18T19:41:14.574Z,172.43
2019-02-18T19:43:50.222Z,175.87
2019-02-18T19:46:16.318Z,178.30
2019-02-18T19:48:48.322Z,174.00
2019-02-18T19:51:18.341Z,174.60
2019-02-18T19:53:48.405Z,173.83
2019-02-18T19:56:18.539Z,175.30
2019-02-18T19:58:48.591Z,181.07
2019-02-18T20:01:18.650Z,188.23
2019-02-18T20:03:48.634Z,182.13
2019-02-18T20:06:18.729Z,199.63
2019-02-18T20:08:48.799Z,192.97
2019-02-18T20:11:18.847Z,204.33
2019-02-18T20:13:48.957Z,205.87
2019-02-18T20:16:19.347Z,208.87
2019-02-18T20:18:49.429Z,214.53
2019-02-18T20:21:19.470Z,215.93
2019-02-18T20:23:49.460Z,203.23
2019-02-18T20:26:19.480Z,222.00
2019-02-18T20:28:49.576Z,218.07
2019-02-18T20:31:19.629Z,224.03
2019-02-18T20:33:49.686Z,241.60
2019-02-18T20:36:19.761Z,242.90
2019-02-18T20:38:49.743Z,235.30
2019-02-18T20:41:19.830Z,249.50
2019-02-18T20:43:50.110Z,250.27
2019-02-18T20:46:20.107Z,245.73
2019-02-18T20:48:50.109Z,237.57
2019-02-18T20:51:20.243Z,255.67
2019-02-18T20:53:50.337Z,268.23
2019-02-18T20:56:20.358Z,268.67
2019-02-18T20:58:50.361Z,284.20
2019-02-18T21:01:20.429Z,266.57
2019-02-18T21:03:50.427Z,258.47
2019-02-18T21:06:20.506Z,251.57
2019-02-18T21:08:50.604Z,258.63
2019-02-18T21:11:20.970Z,249.50
2019-02-18T21:13:50.972Z,246.80
2019-02-18T21:16:20.981Z,252.47
2019-02-18T21:18:51.042Z,255.83
2019-02-18T21:21:21.034Z,254.60
2019-02-18T21:23:51.118Z,249.07
2019-02-18T21:26:21.092Z,252.43
2019-02-18T21:28:51.094Z,266.03
2019-02-18T21:31:21.173Z,269.10
2019-02-18T21:33:51.242Z,275.60
2019-02-18T21:36:21.261Z,265.90
2019-02-18T21:38:51.537Z,275.07
2019-02-18T21:41:21.586Z,266.17
2019-02-18T21:43:51.654Z,258.73
2019-02-18T21:46:21.718Z,259.47
2019-02-18T21:48:51.778Z,268.40
2019-02-18T21:51:21.856Z,263.60
2019-02-18T21:53:52.015Z,270.60
2019-02-18T21:56:22.022Z,269.90
2019-02-18T21:58:52.029Z,270.07
2019-02-18T22:01:22.091Z,273.70
2019-02-18T22:03:52.065Z,276.03
2019-02-18T22:06:22.133Z,281.13
2019-02-18T22:08:52.206Z,273.43
2019-02-18T22:11:22.266Z,275.10
2019-02-18T22:13:52.326Z,273.33
2019-02-18T22:16:22.306Z,274.63
2019-02-18T22:18:52.358Z,275.17
2019-02-18T22:21:22.718Z,271.13
2019-02-18T22:23:52.832Z,275.70
2019-02-18T22:26:22.911Z,281.13
2019-02-18T22:28:52.974Z,274.23
2019-02-18T22:31:23.025Z,272.50
2019-02-18T22:33:53.011Z,287.23
2019-02-18T22:36:24.012Z,279.93
2019-02-18T22:38:54.140Z,280.93
2019-02-18T22:41:24.191Z,285.13
2019-02-18T22:43:54.276Z,279.43
2019-02-18T22:46:24.343Z,274.70
2019-02-18T22:48:54.322Z,275.47
2019-02-18T22:51:24.689Z,270.60
2019-02-18T22:53:54.763Z,262.93
2019-02-18T22:56:24.861Z,271.60
2019-02-18T22:58:54.917Z,264.07
2019-02-18T23:01:24.922Z,269.83
2019-02-18T23:03:54.929Z,274.33
2019-02-18T23:06:25.467Z,271.50
2019-02-18T23:08:55.525Z,264.53
2019-02-18T23:11:25.630Z,271.63
2019-02-18T23:13:55.676Z,256.60
2019-02-18T23:16:25.747Z,271.73
2019-02-18T23:18:55.809Z,269.30
2019-02-18T23:21:26.117Z,260.67
2019-02-18T23:23:56.126Z,270.80
2019-02-18T23:26:27.074Z,260.80
2019-02-18T23:28:57.062Z,265.10
2019-02-18T23:31:27.051Z,263.87
2019-02-18T23:33:57.129Z,260.87
2019-02-18T23:36:27.198Z,263.43
2019-02-18T23:38:57.192Z,256.83
2019-02-18T23:41:27.171Z,260.90
2019-02-18T23:43:57.250Z,255.10
2019-02-18T23:46:27.234Z,257.90
2019-02-18T23:48:57.226Z,250.93
2019-02-18T23:51:27.219Z,257.47
2019-02-18T23:53:57.226Z,259.83
2019-02-18T23:56:27.209Z,257.20
2019-02-18T23:58:57.196Z,249.37
